Terminal Aerodrome Forecast
Issued by NWS Portland, OR

Home | Current Version | Previous Version | Text Only | Print | Product List | Glossary On
Versions: 1 2 3 4 5 6 7 8 9 10 11 12 13 14 15 16 17 18 19 20 21 22 23 24 25 26 27 28 29 30 31 32 33 34 35 36
000
FTUS46 KPQR 241455 AAB
TAFPDX
TAF AMD
KPDX 241455Z 2415/2512 12005KT P6SM SCT006 BKN100
      TEMPO 2415/2417 BKN006
     FM241700 10006KT P6SM SCT050 BKN100
     FM241900 10010KT 6SM -RA OVC050
     FM250600 10014KT P6SM SCT050 OVC100=

USA.gov is the U.S. government's official web portal to all federal, state and local government web resources and services.